createdAt,value
2022-09-20T00:00:36.795Z,22.77
2022-09-20T00:01:36.880Z,22.99
2022-09-20T00:02:36.775Z,22.77
2022-09-20T00:03:36.765Z,23.20
2022-09-20T00:04:36.805Z,22.34
2022-09-20T00:05:36.733Z,22.34
2022-09-20T00:06:36.717Z,23.53
2022-09-20T00:07:36.708Z,22.67
2022-09-20T00:08:36.698Z,23.31
2022-09-20T00:09:36.689Z,22.24
2022-09-20T00:10:36.667Z,23.31
2022-09-20T00:11:36.649Z,23.53
2022-09-20T00:12:36.637Z,23.53
2022-09-20T00:13:36.628Z,22.56
2022-09-20T00:14:36.625Z,22.24
2022-09-20T00:15:39.076Z,23.85
2022-09-20T00:16:36.625Z,23.10
2022-09-20T00:17:36.577Z,22.77
2022-09-20T00:18:36.566Z,22.56
2022-09-20T00:19:36.549Z,22.67
2022-09-20T00:20:36.534Z,23.20
2022-09-20T00:21:36.575Z,23.42
2022-09-20T00:22:36.510Z,23.10
2022-09-20T00:23:36.504Z,22.45
2022-09-20T00:24:36.491Z,23.10
2022-09-20T00:25:36.471Z,23.20
2022-09-20T00:26:36.463Z,22.56
2022-09-20T00:27:36.442Z,23.42
2022-09-20T00:28:36.441Z,22.24
2022-09-20T00:29:36.432Z,23.10
2022-09-20T00:30:36.422Z,23.10
2022-09-20T00:31:36.421Z,22.34
2022-09-20T00:32:37.328Z,22.77
2022-09-20T00:33:37.321Z,23.20
2022-09-20T00:34:37.326Z,23.20
2022-09-20T00:35:36.343Z,23.74
2022-09-20T00:36:36.336Z,23.10
2022-09-20T00:37:36.313Z,22.24
2022-09-20T00:38:36.317Z,23.20
2022-09-20T00:39:36.294Z,23.53
2022-09-20T00:40:36.365Z,22.56
2022-09-20T00:41:36.266Z,22.67
2022-09-20T00:42:36.255Z,23.53
2022-09-20T00:43:36.235Z,23.42
2022-09-20T00:44:36.236Z,22.67
2022-09-20T00:45:36.278Z,22.67
2022-09-20T00:46:36.204Z,22.99
2022-09-20T00:47:36.184Z,22.34
2022-09-20T00:48:36.180Z,23.85
2022-09-20T00:49:36.186Z,22.24
2022-09-20T00:50:36.151Z,23.10
2022-09-20T00:51:36.127Z,22.67
2022-09-20T00:52:36.124Z,23.42
2022-09-20T00:53:36.106Z,22.24
2022-09-20T00:54:36.097Z,22.13
2022-09-20T00:55:36.078Z,22.99
2022-09-20T00:56:36.070Z,23.63
2022-09-20T00:57:36.049Z,23.10
2022-09-20T00:58:36.040Z,23.53
2022-09-20T00:59:36.028Z,23.31
2022-09-20T01:00:36.009Z,22.77
2022-09-20T01:01:36.042Z,23.63
2022-09-20T01:02:36.046Z,22.56
2022-09-20T01:03:35.970Z,23.53
2022-09-20T01:04:35.968Z,22.24
2022-09-20T01:05:35.946Z,22.67
2022-09-20T01:06:35.944Z,22.45
2022-09-20T01:07:35.913Z,23.31
2022-09-20T01:08:35.911Z,23.10
2022-09-20T01:09:35.901Z,23.10
2022-09-20T01:10:35.881Z,23.42
2022-09-20T01:11:35.862Z,22.45
2022-09-20T01:12:35.855Z,22.34
2022-09-20T01:13:35.840Z,23.31
2022-09-20T01:14:35.838Z,22.45
2022-09-20T01:15:35.813Z,23.53
2022-09-20T01:16:35.846Z,22.02
2022-09-20T01:17:35.786Z,22.13
2022-09-20T01:18:35.782Z,23.10
2022-09-20T01:19:35.774Z,23.20
2022-09-20T01:20:35.753Z,21.81
2022-09-20T01:21:35.734Z,22.88
2022-09-20T01:22:35.726Z,23.42
2022-09-20T01:23:35.704Z,22.34
2022-09-20T01:24:35.705Z,21.81
2022-09-20T01:25:35.682Z,22.34
2022-09-20T01:26:35.667Z,23.53
2022-09-20T01:27:35.656Z,22.99
2022-09-20T01:28:35.646Z,22.45
2022-09-20T01:29:35.635Z,22.24
2022-09-20T01:31:44.877Z,22.88
2022-09-20T01:32:44.811Z,22.24
2022-09-20T01:33:44.798Z,22.56
2022-09-20T01:34:44.791Z,23.10
2022-09-20T01:35:44.777Z,22.67
2022-09-20T01:36:44.767Z,22.67
2022-09-20T01:37:44.748Z,22.88
2022-09-20T01:38:44.739Z,22.34
2022-09-20T01:39:44.726Z,22.24
2022-09-20T01:40:44.769Z,22.99
2022-09-20T01:41:44.691Z,22.45
2022-09-20T01:42:44.684Z,22.02
2022-09-20T01:43:44.679Z,23.31
2022-09-20T01:44:44.659Z,22.45
2022-09-20T01:45:44.752Z,22.24
2022-09-20T01:46:44.638Z,22.24
2022-09-20T01:47:44.611Z,22.67
2022-09-20T01:48:44.611Z,22.45
2022-09-20T01:49:44.591Z,23.31
2022-09-20T01:50:44.573Z,23.74
2022-09-20T01:51:44.561Z,22.77
2022-09-20T01:52:44.552Z,23.74
2022-09-20T01:53:44.550Z,23.53
2022-09-20T01:54:44.519Z,23.85
2022-09-20T01:55:44.516Z,23.42
2022-09-20T01:56:44.504Z,23.53
2022-09-20T01:57:44.482Z,23.96
2022-09-20T01:58:44.473Z,23.53
2022-09-20T01:59:44.460Z,23.20
2022-09-20T02:00:44.529Z,23.20
2022-09-20T02:01:44.433Z,23.10
2022-09-20T02:02:44.479Z,23.63
2022-09-20T02:03:44.414Z,23.74
2022-09-20T02:04:44.397Z,23.42
2022-09-20T02:05:44.383Z,23.42
2022-09-20T02:06:44.375Z,23.31
2022-09-20T02:07:44.468Z,23.85
2022-09-20T02:08:45.305Z,23.85
2022-09-20T02:09:44.326Z,22.45
2022-09-20T02:10:44.316Z,22.34
2022-09-20T02:11:44.306Z,23.20
2022-09-20T02:12:44.286Z,22.56
2022-09-20T02:13:44.283Z,22.45
2022-09-20T02:14:44.254Z,23.63
2022-09-20T02:15:44.256Z,22.99
2022-09-20T02:16:44.337Z,23.42
2022-09-20T02:17:44.228Z,23.42
2022-09-20T02:18:44.221Z,23.53
2022-09-20T02:19:44.195Z,23.96
2022-09-20T02:20:44.178Z,22.77
2022-09-20T02:21:44.172Z,23.42
2022-09-20T02:22:44.158Z,23.63
2022-09-20T02:23:44.159Z,22.67
2022-09-20T02:24:44.219Z,21.81
2022-09-20T02:25:44.119Z,22.99
2022-09-20T02:26:44.111Z,22.88
2022-09-20T02:27:44.100Z,23.20
2022-09-20T02:28:44.077Z,23.10
2022-09-20T02:29:44.067Z,22.24
2022-09-20T02:30:44.065Z,22.34
2022-09-20T02:31:44.245Z,22.88
2022-09-20T02:32:44.031Z,22.56
2022-09-20T02:33:44.011Z,22.24
2022-09-20T02:34:44.001Z,23.31
2022-09-20T02:35:43.991Z,22.24
2022-09-20T02:36:43.983Z,22.24
2022-09-20T02:37:43.981Z,22.24
2022-09-20T02:38:43.942Z,23.10
2022-09-20T02:39:43.933Z,22.67
2022-09-20T02:40:43.991Z,23.53
2022-09-20T02:41:43.910Z,22.67
2022-09-20T02:42:43.908Z,22.24
2022-09-20T02:43:43.890Z,22.24
2022-09-20T02:44:43.865Z,22.24
2022-09-20T02:45:43.918Z,22.67
2022-09-20T02:46:43.844Z,22.67
2022-09-20T02:47:43.842Z,22.56
2022-09-20T02:48:43.814Z,22.56
2022-09-20T02:49:43.804Z,22.34
2022-09-20T02:50:44.735Z,22.45
2022-09-20T02:51:43.788Z,23.10
2022-09-20T02:52:43.766Z,22.56
2022-09-20T02:53:43.759Z,22.24
2022-09-20T02:54:43.736Z,23.10
2022-09-20T02:55:43.726Z,23.53
2022-09-20T02:56:43.717Z,23.10
2022-09-20T02:57:43.706Z,22.45
2022-09-20T02:58:43.690Z,22.88
2022-09-20T02:59:43.699Z,22.34
2022-09-20T03:00:43.658Z,22.77
2022-09-20T03:01:43.724Z,22.24
2022-09-20T03:02:43.781Z,22.34
2022-09-20T03:03:43.625Z,23.53
2022-09-20T03:04:43.609Z,23.10
2022-09-20T03:05:43.607Z,23.20
2022-09-20T03:06:43.589Z,23.31
2022-09-20T03:07:43.580Z,23.10
2022-09-20T03:08:43.551Z,23.53
2022-09-20T03:09:43.541Z,22.99
2022-09-20T03:10:43.530Z,23.10
2022-09-20T03:11:44.468Z,23.42
2022-09-20T03:12:43.510Z,22.34
2022-09-20T03:13:43.491Z,22.45
2022-09-20T03:14:43.474Z,22.56
2022-09-20T03:15:44.421Z,22.77
2022-09-20T04:02:15.664Z,25.57
2022-09-20T04:02:23.352Z,24.17
2022-09-20T04:03:27.013Z,24.17
2022-09-20T04:04:20.953Z,23.74
2022-09-20T04:05:20.375Z,24.60
2022-09-20T04:06:20.355Z,25.35
2022-09-20T04:07:20.345Z,24.38
2022-09-20T04:08:20.323Z,24.17
2022-09-20T04:09:20.314Z,24.81
2022-09-20T04:10:20.302Z,23.96
2022-09-20T04:11:20.284Z,23.42
2022-09-20T04:12:20.334Z,24.92
2022-09-20T04:13:20.264Z,23.96
2022-09-20T04:14:20.244Z,24.17
2022-09-20T04:15:20.246Z,23.74
2022-09-20T04:16:20.282Z,23.74
2022-09-20T04:17:20.221Z,23.85
2022-09-20T04:18:20.196Z,23.42
2022-09-20T04:19:20.189Z,24.60
2022-09-20T04:20:20.166Z,23.42
2022-09-20T04:21:20.159Z,23.96
2022-09-20T04:22:20.155Z,24.92
2022-09-20T04:23:20.137Z,23.31
2022-09-20T04:24:21.075Z,23.42
2022-09-20T04:25:20.109Z,24.17
2022-09-20T04:26:20.096Z,24.06
2022-09-20T04:27:20.089Z,23.74
2022-09-20T04:28:21.020Z,23.85
2022-09-20T04:29:20.053Z,23.85
2022-09-20T04:30:20.038Z,24.28
2022-09-20T04:31:20.973Z,24.28
2022-09-20T04:32:20.086Z,23.31
2022-09-20T04:33:20.000Z,23.53
2022-09-20T04:34:19.989Z,23.63
2022-09-20T04:35:19.975Z,23.96
2022-09-20T04:36:19.960Z,23.42
2022-09-20T04:37:19.960Z,24.17
2022-09-20T04:38:20.885Z,23.53
2022-09-20T04:39:19.931Z,23.85
2022-09-20T04:40:19.978Z,23.85
2022-09-20T04:41:19.901Z,23.74
2022-09-20T04:42:19.892Z,24.28
2022-09-20T04:43:19.872Z,23.31
2022-09-20T04:44:19.852Z,23.85
2022-09-20T04:45:19.843Z,23.85
2022-09-20T04:46:19.876Z,23.63
2022-09-20T04:47:19.835Z,24.06
2022-09-20T04:48:19.815Z,23.10
2022-09-20T04:49:19.793Z,23.20
2022-09-20T04:50:19.788Z,23.10
2022-09-20T04:51:19.771Z,23.63
2022-09-20T04:52:19.764Z,23.10
2022-09-20T04:53:19.744Z,23.85
2022-09-20T04:54:19.724Z,24.17
2022-09-20T04:55:19.715Z,23.42
2022-09-20T04:56:19.698Z,23.85
2022-09-20T04:57:19.696Z,23.85
2022-09-20T04:58:19.679Z,23.63
2022-09-20T04:59:19.666Z,23.63
2022-09-20T05:00:19.647Z,23.53
2022-09-20T05:01:19.740Z,23.74
2022-09-20T05:02:19.674Z,23.63
2022-09-20T05:03:19.614Z,23.85
2022-09-20T05:04:19.594Z,23.42
2022-09-20T05:05:19.586Z,23.85
2022-09-20T05:06:19.568Z,23.85
2022-09-20T05:07:19.569Z,24.17
2022-09-20T05:08:19.538Z,23.42
2022-09-20T05:09:19.541Z,24.17
2022-09-20T05:10:19.518Z,23.74
2022-09-20T05:11:19.520Z,23.74
2022-09-20T05:12:19.499Z,23.42
2022-09-20T05:13:19.479Z,24.17
2022-09-20T05:14:19.524Z,24.28
2022-09-20T05:15:19.467Z,24.60
2022-09-20T05:16:19.497Z,24.17
2022-09-20T05:17:19.450Z,23.74
2022-09-20T05:18:19.414Z,24.17
2022-09-20T05:19:19.400Z,23.85
2022-09-20T05:20:19.390Z,23.53
2022-09-20T05:21:19.390Z,23.63
2022-09-20T05:22:19.371Z,23.63
2022-09-20T05:23:19.351Z,23.96
2022-09-20T05:24:19.330Z,23.96
2022-09-20T05:25:20.279Z,23.74
2022-09-20T05:26:20.279Z,23.96
2022-09-20T05:27:19.302Z,23.20
2022-09-20T05:28:19.297Z,23.85
2022-09-20T05:29:19.323Z,24.28
2022-09-20T05:30:19.254Z,23.85
2022-09-20T05:31:19.304Z,24.06
2022-09-20T05:32:19.234Z,24.28
2022-09-20T05:33:19.223Z,23.85
2022-09-20T05:34:19.204Z,23.85
2022-09-20T05:35:19.194Z,23.42
2022-09-20T05:36:19.174Z,23.96
2022-09-20T05:37:19.184Z,22.99
2022-09-20T05:38:19.220Z,23.96
2022-09-20T05:39:19.145Z,23.31
2022-09-20T05:40:19.159Z,24.06
2022-09-20T05:41:19.126Z,24.06
2022-09-20T05:42:19.096Z,24.17
2022-09-20T05:43:19.091Z,23.74
2022-09-20T05:44:19.071Z,23.96
2022-09-20T05:45:19.063Z,23.85
2022-09-20T05:46:19.056Z,23.74
2022-09-20T05:47:19.038Z,23.53
2022-09-20T05:48:19.017Z,24.17
2022-09-20T05:49:19.012Z,23.85
2022-09-20T05:50:18.997Z,24.17
2022-09-20T05:51:18.998Z,23.85
2022-09-20T05:52:18.968Z,23.53
2022-09-20T05:53:18.960Z,24.06
2022-09-20T05:54:18.939Z,23.74
2022-09-20T05:55:18.937Z,23.74
2022-09-20T05:56:19.876Z,23.42
2022-09-20T05:57:18.908Z,24.49
2022-09-20T05:58:18.889Z,23.74
2022-09-20T05:59:18.880Z,24.17
2022-09-20T06:00:19.818Z,23.42
2022-09-20T06:01:18.885Z,24.38
2022-09-20T06:02:18.875Z,23.96
2022-09-20T06:03:18.831Z,23.85
2022-09-20T06:04:18.827Z,24.17
2022-09-20T06:05:18.801Z,23.53
2022-09-20T06:06:18.791Z,24.17
2022-09-20T06:07:18.781Z,23.74
2022-09-20T06:08:18.761Z,24.17
2022-09-20T06:09:18.752Z,23.74
2022-09-20T06:10:18.743Z,23.63
2022-09-20T06:11:18.738Z,24.06
2022-09-20T06:12:18.703Z,23.63
2022-09-20T06:13:18.694Z,24.17
2022-09-20T06:14:18.713Z,23.42
2022-09-20T06:15:18.679Z,23.31
2022-09-20T06:16:18.694Z,23.74
2022-09-20T06:17:18.646Z,23.85
2022-09-20T06:18:18.624Z,23.85
2022-09-20T06:19:18.614Z,23.53
2022-09-20T06:20:18.615Z,23.85
2022-09-20T06:21:18.595Z,23.85
2022-09-20T06:22:18.575Z,24.17
2022-09-20T06:23:18.574Z,23.53
2022-09-20T06:24:18.547Z,25.03
2022-09-20T06:25:18.546Z,23.85
2022-09-20T06:26:18.526Z,23.42
2022-09-20T06:27:18.513Z,23.10
2022-09-20T06:28:18.496Z,24.17
2022-09-20T06:29:18.496Z,23.42
2022-09-20T06:30:18.662Z,23.85
2022-09-20T06:31:18.467Z,24.17
2022-09-20T06:32:18.448Z,23.74
2022-09-20T06:33:19.386Z,23.96
2022-09-20T06:34:18.418Z,23.42
2022-09-20T06:35:18.420Z,23.74
2022-09-20T06:36:18.395Z,23.31
2022-09-20T06:37:18.409Z,23.53
2022-09-20T06:38:18.368Z,23.20
2022-09-20T06:39:18.359Z,23.10
2022-09-20T06:40:18.404Z,23.96
2022-09-20T06:41:18.330Z,22.88
2022-09-20T06:42:18.310Z,23.42
2022-09-20T06:43:18.309Z,23.42
2022-09-20T06:44:18.290Z,23.42
2022-09-20T06:45:19.246Z,23.10
2022-09-20T06:46:18.326Z,23.63
2022-09-20T06:47:18.252Z,22.99
2022-09-20T06:48:18.231Z,24.17
2022-09-20T06:49:18.222Z,23.42
2022-09-20T06:50:18.223Z,23.42
2022-09-20T06:51:18.199Z,23.74
2022-09-20T06:52:18.192Z,24.49
2022-09-20T06:53:18.172Z,23.53
2022-09-20T06:54:18.154Z,23.53
2022-09-20T06:55:18.153Z,23.42
2022-09-20T06:56:18.133Z,23.20
2022-09-20T06:57:18.123Z,23.85
2022-09-20T06:58:18.112Z,23.85
2022-09-20T06:59:18.100Z,23.42
2022-09-20T07:00:18.094Z,23.53
2022-09-20T07:01:29.350Z,23.96
2022-09-20T07:02:19.116Z,23.74
2022-09-20T07:03:18.107Z,23.74
2022-09-20T07:04:18.976Z,23.42
2022-09-20T07:05:18.827Z,23.74
2022-09-20T07:06:18.005Z,23.42
2022-09-20T07:07:17.996Z,23.53
2022-09-20T07:08:17.976Z,23.96
2022-09-20T07:09:17.976Z,23.10
2022-09-20T07:10:17.957Z,22.99
2022-09-20T07:11:17.951Z,22.67
2022-09-20T07:12:17.929Z,23.74
2022-09-20T07:13:17.910Z,23.42
2022-09-20T07:14:17.898Z,23.42
2022-09-20T07:15:17.899Z,23.96
2022-09-20T07:16:17.925Z,23.53
2022-09-20T07:17:17.871Z,23.42
2022-09-20T07:18:17.840Z,23.53
2022-09-20T07:19:17.837Z,23.42
2022-09-20T07:20:21.353Z,23.10
2022-09-20T07:21:17.820Z,23.53
2022-09-20T07:22:17.790Z,23.53
2022-09-20T07:23:17.781Z,23.96
2022-09-20T07:24:17.760Z,22.24
2022-09-20T07:25:18.720Z,23.53
2022-09-20T07:26:17.741Z,23.20
2022-09-20T07:27:17.732Z,23.53
2022-09-20T07:28:17.712Z,23.85
2022-09-20T07:29:17.712Z,23.20
2022-09-20T07:30:17.681Z,23.63
2022-09-20T07:31:17.745Z,23.74
2022-09-20T07:32:17.660Z,23.42
2022-09-20T07:33:17.653Z,23.31
2022-09-20T07:34:18.591Z,23.20
2022-09-20T07:35:18.587Z,23.42
2022-09-20T07:36:17.614Z,23.85
2022-09-20T07:37:17.604Z,23.74
2022-09-20T07:38:17.580Z,22.24
2022-09-20T07:39:17.585Z,23.10
2022-09-20T07:40:17.596Z,22.67
2022-09-20T07:41:17.542Z,22.56
2022-09-20T07:42:17.536Z,23.20
2022-09-20T07:43:17.515Z,23.85
2022-09-20T07:44:17.506Z,23.10
2022-09-20T07:45:18.446Z,23.74
2022-09-20T07:46:17.473Z,22.56
2022-09-20T07:47:17.467Z,23.42
2022-09-20T07:48:17.448Z,22.88
2022-09-20T07:49:17.450Z,23.96
2022-09-20T07:50:17.432Z,23.42
2022-09-20T07:51:17.417Z,23.31
2022-09-20T07:52:17.398Z,23.42
2022-09-20T07:53:17.393Z,23.10
2022-09-20T07:54:17.378Z,23.85
2022-09-20T07:55:17.366Z,23.42
2022-09-20T07:56:17.339Z,22.56
2022-09-20T07:57:17.335Z,23.20
2022-09-20T07:58:17.346Z,23.53
2022-09-20T07:59:17.320Z,23.42
2022-09-20T08:00:17.289Z,22.56
2022-09-20T08:01:17.334Z,23.42
2022-09-20T08:02:17.321Z,23.53
2022-09-20T08:03:17.251Z,23.42
2022-09-20T08:04:17.251Z,23.85
2022-09-20T08:05:17.233Z,23.53
2022-09-20T08:06:17.211Z,22.45
2022-09-20T08:07:17.217Z,22.56
2022-09-20T08:08:17.222Z,23.63
2022-09-20T08:09:17.182Z,23.63
2022-09-20T08:10:17.164Z,22.56
2022-09-20T08:11:17.149Z,23.31
2022-09-20T08:14:19.366Z,22.24
2022-09-20T08:15:17.904Z,23.63
2022-09-20T08:16:17.119Z,23.42
2022-09-20T08:17:17.075Z,22.45
2022-09-20T08:18:18.014Z,22.45
2022-09-20T08:19:17.056Z,23.10
2022-09-20T08:20:17.036Z,23.42
2022-09-20T08:21:17.156Z,23.31
2022-09-20T08:22:17.006Z,23.85
2022-09-20T08:23:23.819Z,22.34
2022-09-20T08:24:17.986Z,23.53
2022-09-20T08:25:16.966Z,22.56
2022-09-20T08:26:16.947Z,23.20
2022-09-20T08:27:16.947Z,23.63
2022-09-20T08:28:16.925Z,22.45
2022-09-20T08:29:16.928Z,23.96
2022-09-20T08:30:16.899Z,22.34
2022-09-20T08:31:17.005Z,23.10
2022-09-20T08:32:16.879Z,22.77
2022-09-20T08:33:16.866Z,22.67
2022-09-20T08:34:16.859Z,22.77
2022-09-20T08:35:16.829Z,23.96
2022-09-20T08:36:16.820Z,23.20
2022-09-20T08:37:16.811Z,23.20
2022-09-20T08:40:17.836Z,23.10
2022-09-20T08:41:16.752Z,23.10
2022-09-20T08:42:16.753Z,22.45
2022-09-20T08:43:22.383Z,23.42
2022-09-20T08:44:17.719Z,23.31
2022-09-20T08:45:34.532Z,23.53
2022-09-20T08:46:22.901Z,22.56
2022-09-20T08:47:17.672Z,22.34
2022-09-20T08:48:16.673Z,22.45
2022-09-20T08:49:16.653Z,22.67
2022-09-20T08:50:18.089Z,22.45
2022-09-20T08:51:22.627Z,22.34
2022-09-20T08:52:17.613Z,22.67
2022-09-20T08:53:21.403Z,23.53
2022-09-20T08:54:17.590Z,23.20
2022-09-20T08:55:16.582Z,23.42
2022-09-20T08:56:16.565Z,22.56
2022-09-20T08:57:16.547Z,23.31
2022-09-20T08:58:16.556Z,23.53
2022-09-20T08:59:16.517Z,22.02
2022-09-20T09:00:16.514Z,23.31
2022-09-20T09:01:16.510Z,22.45
2022-09-20T09:02:16.575Z,23.42
2022-09-20T09:03:16.477Z,22.67
2022-09-20T09:04:16.457Z,22.56
2022-09-20T09:05:16.438Z,22.45
2022-09-20T09:06:18.455Z,23.42
2022-09-20T09:07:16.418Z,22.13
2022-09-20T09:08:16.584Z,23.42
2022-09-20T09:09:16.388Z,23.31
2022-09-20T09:10:16.390Z,22.56
2022-09-20T09:11:16.369Z,22.45
2022-09-20T09:12:16.353Z,23.31
2022-09-20T09:13:16.349Z,23.20
2022-09-20T09:14:16.331Z,22.67
2022-09-20T09:15:17.679Z,22.02
2022-09-20T09:16:23.151Z,22.99
2022-09-20T09:17:17.290Z,22.77
2022-09-20T09:18:16.281Z,23.20
2022-09-20T09:19:16.262Z,22.24
2022-09-20T09:20:16.334Z,23.31
2022-09-20T09:21:16.250Z,23.53
2022-09-20T09:22:16.223Z,23.20
2022-09-20T09:23:16.215Z,23.42
2022-09-20T09:24:16.206Z,23.63
2022-09-20T09:25:16.183Z,23.53
2022-09-20T09:26:16.171Z,22.56
2022-09-20T09:27:16.154Z,23.10
2022-09-20T09:28:16.154Z,23.63
2022-09-20T09:29:16.134Z,23.42
2022-09-20T09:30:16.117Z,23.20
2022-09-20T09:31:16.145Z,23.85
2022-09-20T09:32:16.114Z,22.67
2022-09-20T09:33:17.036Z,23.85
2022-09-20T09:34:16.073Z,23.42
2022-09-20T09:35:16.056Z,22.34
2022-09-20T09:36:16.043Z,22.67
2022-09-20T09:37:16.037Z,22.77
2022-09-20T09:38:16.018Z,23.53
2022-09-20T09:39:16.015Z,22.45
2022-09-20T09:40:16.064Z,22.77
2022-09-20T09:41:15.978Z,23.31
2022-09-20T09:42:15.976Z,23.10
2022-09-20T09:43:15.955Z,22.67
2022-09-20T09:44:15.939Z,23.42
2022-09-20T09:45:15.931Z,23.31
2022-09-20T09:46:15.951Z,23.31
2022-09-20T09:47:15.910Z,23.31
2022-09-20T09:48:15.897Z,23.63
2022-09-20T09:49:16.109Z,23.20
2022-09-20T09:50:15.891Z,23.85
2022-09-20T09:51:15.851Z,25.14
2022-09-20T09:52:15.848Z,25.24
2022-09-20T09:53:15.823Z,26.43
2022-09-20T09:54:15.813Z,28.79
2022-09-20T09:55:15.793Z,30.08
2022-09-20T09:56:15.784Z,30.29
2022-09-20T09:57:15.785Z,29.43
2022-09-20T09:58:15.760Z,29.43
2022-09-20T09:59:15.743Z,29.43
2022-09-20T10:00:21.261Z,29.65
2022-09-20T10:01:16.782Z,30.40
2022-09-20T10:02:15.791Z,29.54
2022-09-20T10:03:16.655Z,29.43
2022-09-20T10:04:15.684Z,29.76
2022-09-20T10:05:15.666Z,29.22
2022-09-20T10:06:15.737Z,29.65
2022-09-20T10:07:15.646Z,29.54
2022-09-20T10:08:16.435Z,29.43
2022-09-20T10:09:15.617Z,28.90
2022-09-20T10:10:15.605Z,29.11
2022-09-20T10:11:15.597Z,28.36
2022-09-20T10:12:15.595Z,27.82
2022-09-20T10:13:15.565Z,27.82
2022-09-20T10:14:15.548Z,28.79
2022-09-20T10:15:15.533Z,27.71
2022-09-20T10:16:15.536Z,28.36
2022-09-20T10:17:15.518Z,28.14
2022-09-20T10:18:15.499Z,28.25
2022-09-20T10:19:18.412Z,27.61
2022-09-20T10:20:16.472Z,27.29
2022-09-20T10:21:15.476Z,28.04
2022-09-20T10:22:16.411Z,28.04
2022-09-20T10:23:44.954Z,28.04
2022-09-20T10:24:17.381Z,27.82
2022-09-20T10:25:15.400Z,27.29
2022-09-20T10:26:15.401Z,27.39
2022-09-20T10:27:15.381Z,27.71
2022-09-20T10:28:15.367Z,28.25
2022-09-20T10:29:15.352Z,28.04
2022-09-20T10:30:15.342Z,28.36
2022-09-20T10:31:15.354Z,27.29
2022-09-20T10:32:16.289Z,27.39
2022-09-20T10:33:15.302Z,26.86
2022-09-20T10:34:15.293Z,27.61
2022-09-20T10:35:15.276Z,27.39
2022-09-20T10:36:15.273Z,28.04
2022-09-20T10:37:16.204Z,28.04
2022-09-20T10:38:16.196Z,27.50
2022-09-20T10:39:15.224Z,27.39
2022-09-20T10:40:15.310Z,28.04
2022-09-20T10:41:15.210Z,27.71
2022-09-20T10:42:15.196Z,28.14
2022-09-20T10:43:15.168Z,27.61
2022-09-20T10:44:15.163Z,26.75
2022-09-20T10:45:29.035Z,26.86
2022-09-20T10:46:32.930Z,26.86
2022-09-20T10:47:16.164Z,26.86
2022-09-20T10:48:15.108Z,26.53
2022-09-20T10:49:15.152Z,27.29
2022-09-20T10:50:15.080Z,27.61
2022-09-20T10:51:15.081Z,26.86
2022-09-20T10:52:15.069Z,26.53
2022-09-20T10:53:15.043Z,27.50
2022-09-20T10:54:15.038Z,26.64
2022-09-20T10:55:15.011Z,26.75
2022-09-20T10:56:15.041Z,26.21
2022-09-20T10:57:15.001Z,26.75
2022-09-20T10:58:14.980Z,27.50
2022-09-20T10:59:14.972Z,27.61
2022-09-20T11:00:14.951Z,27.39
2022-09-20T11:01:14.976Z,27.50
2022-09-20T11:02:15.052Z,26.21
2022-09-20T11:03:14.912Z,27.61
2022-09-20T11:04:14.902Z,26.43
2022-09-20T11:05:14.892Z,27.39
2022-09-20T11:06:14.889Z,26.43
2022-09-20T11:07:14.863Z,27.50
2022-09-20T11:08:14.854Z,26.21
2022-09-20T11:09:14.834Z,27.50
2022-09-20T11:10:14.831Z,27.07
2022-09-20T11:11:14.972Z,27.39
2022-09-20T11:12:14.804Z,26.43
2022-09-20T11:13:14.785Z,27.39
2022-09-20T11:14:14.780Z,26.64
2022-09-20T11:15:14.755Z,26.64
2022-09-20T11:16:14.791Z,26.00
2022-09-20T11:17:14.736Z,26.53
2022-09-20T11:18:14.725Z,26.96
2022-09-20T11:19:14.707Z,26.53
2022-09-20T11:20:14.708Z,26.21
2022-09-20T11:21:14.686Z,27.61
2022-09-20T11:22:14.675Z,27.07
2022-09-20T11:23:15.598Z,26.43
2022-09-20T11:24:14.648Z,26.10
2022-09-20T11:25:18.107Z,26.21
2022-09-20T11:26:15.619Z,26.53
2022-09-20T11:27:14.610Z,26.53
2022-09-20T11:28:14.589Z,26.53
2022-09-20T11:29:14.593Z,26.10
2022-09-20T11:30:14.600Z,25.89
2022-09-20T11:31:14.596Z,26.64
2022-09-20T11:32:14.610Z,25.78
2022-09-20T11:33:14.521Z,25.89
2022-09-20T11:34:14.534Z,26.32
2022-09-20T11:35:14.492Z,26.21
2022-09-20T11:36:14.482Z,26.64
2022-09-20T11:37:14.482Z,26.10
2022-09-20T11:38:14.463Z,26.64
2022-09-20T11:39:14.441Z,26.53
2022-09-20T11:40:14.447Z,26.32
2022-09-20T11:41:14.415Z,25.89
2022-09-20T11:42:14.405Z,26.32
2022-09-20T11:43:14.386Z,26.21
2022-09-20T11:44:14.376Z,27.07
2022-09-20T11:45:14.355Z,25.35
2022-09-20T11:46:14.393Z,26.43
2022-09-20T11:47:26.622Z,26.32
2022-09-20T11:48:15.328Z,26.21
2022-09-20T11:49:14.297Z,26.32
2022-09-20T11:50:14.294Z,25.03
2022-09-20T11:51:14.277Z,26.64
2022-09-20T11:52:14.273Z,26.32
2022-09-20T11:53:14.247Z,26.75
2022-09-20T11:54:14.238Z,26.64
2022-09-20T11:55:14.218Z,26.21
2022-09-20T11:56:14.215Z,26.00
2022-09-20T11:57:14.199Z,26.64
2022-09-20T11:58:14.189Z,26.00
2022-09-20T11:59:14.169Z,26.32
2022-09-20T12:00:14.160Z,25.35
2022-09-20T12:01:14.151Z,25.89
2022-09-20T12:02:14.249Z,26.21
2022-09-20T12:03:14.188Z,26.53
2022-09-20T12:04:31.968Z,26.64
2022-09-20T12:05:15.113Z,26.00
2022-09-20T12:06:14.100Z,26.00
2022-09-20T12:07:17.605Z,26.00
2022-09-20T12:08:14.052Z,25.24
2022-09-20T12:09:14.043Z,25.89
2022-09-20T12:10:14.033Z,26.53
2022-09-20T12:11:14.029Z,26.00
2022-09-20T12:12:14.005Z,26.00
2022-09-20T12:13:13.984Z,26.43
2022-09-20T12:14:13.984Z,25.89
2022-09-20T12:15:13.955Z,26.21
2022-09-20T12:16:13.988Z,26.75
2022-09-20T12:17:13.955Z,26.32
2022-09-20T12:18:13.925Z,26.86
2022-09-20T12:19:13.928Z,25.14
2022-09-20T12:20:19.270Z,26.10
2022-09-20T12:21:16.843Z,25.46
2022-09-20T12:22:13.868Z,26.64
2022-09-20T12:23:13.869Z,25.46
2022-09-20T12:24:13.848Z,26.21
2022-09-20T12:25:13.836Z,25.24
2022-09-20T12:26:13.818Z,26.32
2022-09-20T12:27:13.799Z,26.32
2022-09-20T12:28:13.788Z,25.78
2022-09-20T12:29:13.776Z,26.21
2022-09-20T12:30:13.769Z,25.14
2022-09-20T12:31:13.835Z,25.24
2022-09-20T12:32:13.735Z,25.35
2022-09-20T12:33:13.727Z,26.21
2022-09-20T12:34:13.710Z,26.10
2022-09-20T12:35:13.702Z,25.89
2022-09-20T12:36:13.683Z,25.89
2022-09-20T12:37:13.672Z,25.24
2022-09-20T12:38:13.658Z,26.21
2022-09-20T12:39:17.622Z,26.21
2022-09-20T12:40:14.665Z,25.35
2022-09-20T12:41:13.624Z,26.00
2022-09-20T12:42:16.780Z,26.43
2022-09-20T12:43:13.594Z,25.46
2022-09-20T12:44:13.593Z,25.24
2022-09-20T12:45:13.565Z,26.00
2022-09-20T12:46:13.588Z,26.21
2022-09-20T12:47:13.554Z,26.10
2022-09-20T12:48:13.525Z,24.71
2022-09-20T12:49:13.517Z,26.00
2022-09-20T12:50:13.506Z,25.24
2022-09-20T12:51:14.447Z,25.14
2022-09-20T12:52:13.467Z,25.24
2022-09-20T12:53:13.472Z,25.14
2022-09-20T12:54:13.449Z,24.92
2022-09-20T12:55:13.448Z,25.24
2022-09-20T12:56:13.429Z,26.10
2022-09-20T12:57:13.409Z,24.71
2022-09-20T12:58:14.507Z,25.57
2022-09-20T12:59:13.392Z,26.53
2022-09-20T13:00:13.380Z,25.35
2022-09-20T13:01:14.645Z,26.43
2022-09-20T13:02:13.402Z,26.10
2022-09-20T13:03:13.340Z,25.14
2022-09-20T13:04:13.322Z,24.81
2022-09-20T13:05:13.305Z,25.24
2022-09-20T13:06:13.289Z,24.92
2022-09-20T13:07:13.293Z,26.00
2022-09-20T13:08:13.272Z,26.43
2022-09-20T13:09:13.256Z,24.92
2022-09-20T13:10:13.228Z,26.53
2022-09-20T13:11:13.220Z,25.03
2022-09-20T13:12:13.213Z,24.49
2022-09-20T13:13:13.194Z,25.14
2022-09-20T13:14:13.184Z,25.35
2022-09-20T13:15:13.175Z,26.10
2022-09-20T13:16:14.644Z,26.10
2022-09-20T13:17:13.142Z,25.24
2022-09-20T13:18:13.131Z,26.21
2022-09-20T13:19:13.126Z,25.46
2022-09-20T13:20:13.106Z,25.24
2022-09-20T13:21:13.087Z,26.21
2022-09-20T13:22:13.079Z,26.10
2022-09-20T13:23:13.063Z,25.35
2022-09-20T13:24:13.059Z,24.60
2022-09-20T13:25:13.034Z,25.03
2022-09-20T13:26:13.024Z,25.24
2022-09-20T13:27:13.192Z,24.71
2022-09-20T13:28:15.794Z,25.35
2022-09-20T13:29:13.990Z,24.92
2022-09-20T13:30:12.970Z,24.81
2022-09-20T13:31:12.999Z,24.92
2022-09-20T13:32:12.950Z,25.03
2022-09-20T13:33:12.932Z,25.24
2022-09-20T13:34:13.881Z,25.03
2022-09-20T13:35:12.902Z,25.24
2022-09-20T13:36:12.923Z,25.14
2022-09-20T13:37:13.842Z,25.46
2022-09-20T13:38:12.863Z,25.24
2022-09-20T13:39:12.859Z,24.06
2022-09-20T13:40:12.924Z,25.24
2022-09-20T13:41:12.835Z,25.24
2022-09-20T13:42:12.814Z,25.14